Terminal Aerodrome Forecast
Issued by NWS Atlanta, GA

Home | Current Version | Previous Version | Text Only | Print | Product List | Glossary On
Versions: 1 2 3 4 5 6 7 8 9 10 11 12 13 14 15 16 17 18 19 20 21 22 23 24 25 26 27 28 29 30 31 32 33 34 35 36 37 38 39 40 41 42
000
FTUS42 KFFC 301120
TAFATL
TAF
KATL 301120Z 3012/3118 09007KT P6SM -SHRA SCT015 BKN030 OVC080
      TEMPO 3012/3016 3SM SHRA BKN010
     FM301600 09010KT P6SM VCSH BKN030 BKN100
     FM301800 09010KT P6SM VCSH BKN035
      TEMPO 3018/3022 5SM TSRA BKN025CB
     FM310100 09008KT P6SM SCT030 BKN100
     FM310600 09007KT P6SM BKN005 OVC030
     FM311400 09007KT 5SM BR BKN010=

USA.gov is the U.S. government's official web portal to all federal, state and local government web resources and services.